sensor_id;sensor_type;location;lat;lon;timestamp;pressure;altitude;pressure_sealevel;temperature;humidity
20755;BME280;26385;48.470;7.938;2022-09-01T00:00:12;100018.03;;;20.03;76.10
20755;BME280;26385;48.470;7.938;2022-09-01T00:02:39;100020.63;;;20.04;76.48
20755;BME280;26385;48.470;7.938;2022-09-01T00:05:07;100023.19;;;20.07;76.59
20755;BME280;26385;48.470;7.938;2022-09-01T00:07:33;100022.22;;;20.13;76.45
20755;BME280;26385;48.470;7.938;2022-09-01T00:10:00;100029.34;;;20.06;77.36
20755;BME280;26385;48.470;7.938;2022-09-01T00:12:27;100030.34;;;20.02;77.65
20755;BME280;26385;48.470;7.938;2022-09-01T00:14:52;100026.81;;;20.03;77.91
20755;BME280;26385;48.470;7.938;2022-09-01T00:17:19;100024.22;;;20.00;77.44
20755;BME280;26385;48.470;7.938;2022-09-01T00:19:44;100025.16;;;19.98;77.07
20755;BME280;26385;48.470;7.938;2022-09-01T00:22:10;100022.66;;;19.90;75.93
20755;BME280;26385;48.470;7.938;2022-09-01T00:24:35;100027.94;;;19.90;76.08
20755;BME280;26385;48.470;7.938;2022-09-01T00:27:02;100032.41;;;19.86;76.44
20755;BME280;26385;48.470;7.938;2022-09-01T00:29:27;100020.41;;;19.72;77.59
20755;BME280;26385;48.470;7.938;2022-09-01T00:31:53;100027.59;;;19.62;77.09
20755;BME280;26385;48.470;7.938;2022-09-01T00:34:19;100023.16;;;19.64;77.29
20755;BME280;26385;48.470;7.938;2022-09-01T00:36:44;100032.84;;;19.62;77.66
20755;BME280;26385;48.470;7.938;2022-09-01T00:39:10;100026.72;;;19.61;77.65
20755;BME280;26385;48.470;7.938;2022-09-01T00:41:38;100029.44;;;19.55;78.07
20755;BME280;26385;48.470;7.938;2022-09-01T00:44:07;100025.00;;;19.60;78.03
20755;BME280;26385;48.470;7.938;2022-09-01T00:46:39;100029.44;;;19.57;78.40
20755;BME280;26385;48.470;7.938;2022-09-01T00:49:08;100030.31;;;19.54;78.98
20755;BME280;26385;48.470;7.938;2022-09-01T00:51:36;100027.66;;;19.56;79.33
20755;BME280;26385;48.470;7.938;2022-09-01T00:54:05;100020.69;;;19.56;79.33
20755;BME280;26385;48.470;7.938;2022-09-01T00:56:33;100015.34;;;19.61;79.37
20755;BME280;26385;48.470;7.938;2022-09-01T00:58:59;100021.50;;;19.58;79.63
20755;BME280;26385;48.470;7.938;2022-09-01T01:01:26;100021.50;;;19.58;79.78
20755;BME280;26385;48.470;7.938;2022-09-01T01:03:51;100015.34;;;19.61;79.81
20755;BME280;26385;48.470;7.938;2022-09-01T01:06:17;100012.69;;;19.62;80.29
20755;BME280;26385;48.470;7.938;2022-09-01T01:08:46;100018.81;;;19.63;80.36
20755;BME280;26385;48.470;7.938;2022-09-01T01:11:22;100019.72;;;19.62;80.27
20755;BME280;26385;48.470;7.938;2022-09-01T01:13:53;100012.59;;;19.68;83.43
20755;BME280;26385;48.470;7.938;2022-09-01T01:16:19;100015.28;;;20.09;85.43
20755;BME280;26385;48.470;7.938;2022-09-01T01:18:45;100017.53;;;20.27;83.75
20755;BME280;26385;48.470;7.938;2022-09-01T01:21:18;100012.41;;;20.63;82.66
20755;BME280;26385;48.470;7.938;2022-09-01T01:24:15;100016.19;;;20.88;80.00
20755;BME280;26385;48.470;7.938;2022-09-01T01:26:42;100020.41;;;20.95;79.15
20755;BME280;26385;48.470;7.938;2022-09-01T01:29:07;100015.66;;;21.09;78.12
20755;BME280;26385;48.470;7.938;2022-09-01T01:31:33;100009.94;;;20.94;75.72
20755;BME280;26385;48.470;7.938;2022-09-01T01:33:59;100009.63;;;20.69;76.04
20755;BME280;26385;48.470;7.938;2022-09-01T01:36:28;99998.84;;;20.39;76.71
20755;BME280;26385;48.470;7.938;2022-09-01T01:39:04;100010.72;;;20.18;78.03
20755;BME280;26385;48.470;7.938;2022-09-01T01:41:30;100012.56;;;20.13;78.23
20755;BME280;26385;48.470;7.938;2022-09-01T01:43:58;100005.03;;;19.96;78.98
20755;BME280;26385;48.470;7.938;2022-09-01T01:46:24;100003.56;;;19.82;79.80
20755;BME280;26385;48.470;7.938;2022-09-01T01:48:51;100006.16;;;19.83;79.60
20755;BME280;26385;48.470;7.938;2022-09-01T01:51:18;100005.34;;;19.80;79.75
20755;BME280;26385;48.470;7.938;2022-09-01T01:53:46;100008.94;;;19.74;80.43
20755;BME280;26385;48.470;7.938;2022-09-01T01:56:12;100004.81;;;19.62;80.66
20755;BME280;26385;48.470;7.938;2022-09-01T01:58:37;100015.44;;;19.55;81.17
20755;BME280;26385;48.470;7.938;2022-09-01T02:01:04;100012.91;;;19.49;82.03
20755;BME280;26385;48.470;7.938;2022-09-01T02:03:32;100012.06;;;19.47;81.61
20755;BME280;26385;48.470;7.938;2022-09-01T02:06:04;100006.88;;;19.42;81.98
20755;BME280;26385;48.470;7.938;2022-09-01T02:08:33;100013.94;;;19.40;81.92
20755;BME280;26385;48.470;7.938;2022-09-01T02:11:01;100010.44;;;19.39;81.86
20755;BME280;26385;48.470;7.938;2022-09-01T02:13:27;100015.78;;;19.33;81.92
20755;BME280;26385;48.470;7.938;2022-09-01T02:16:00;100014.94;;;19.34;82.26
20755;BME280;26385;48.470;7.938;2022-09-01T02:18:37;100014.06;;;19.34;82.21
20755;BME280;26385;48.470;7.938;2022-09-01T02:21:05;100014.06;;;19.32;82.47
20755;BME280;26385;48.470;7.938;2022-09-01T02:23:34;100010.53;;;19.33;82.20
20755;BME280;26385;48.470;7.938;2022-09-01T02:25:59;100015.97;;;19.24;82.65
20755;BME280;26385;48.470;7.938;2022-09-01T02:28:27;100008.09;;;19.23;82.86
20755;BME280;26385;48.470;7.938;2022-09-01T02:30:56;100006.31;;;19.25;82.97
20755;BME280;26385;48.470;7.938;2022-09-01T02:33:24;100013.38;;;19.21;83.21
20755;BME280;26385;48.470;7.938;2022-09-01T02:35:57;100008.19;;;19.17;83.07
20755;BME280;26385;48.470;7.938;2022-09-01T02:38:23;100011.72;;;19.17;82.72
20755;BME280;26385;48.470;7.938;2022-09-01T02:40:51;100011.75;;;19.14;83.48
20755;BME280;26385;48.470;7.938;2022-09-01T02:43:18;100009.22;;;19.08;83.35
20755;BME280;26385;48.470;7.938;2022-09-01T02:45:47;100010.13;;;19.07;83.42
20755;BME280;26385;48.470;7.938;2022-09-01T02:48:15;100005.75;;;19.09;83.23
20755;BME280;26385;48.470;7.938;2022-09-01T02:50:42;100007.50;;;19.07;83.39
20755;BME280;26385;48.470;7.938;2022-09-01T02:53:08;100011.03;;;19.06;83.21
20755;BME280;26385;48.470;7.938;2022-09-01T02:55:36;100012.91;;;18.98;83.61
20755;BME280;26385;48.470;7.938;2022-09-01T02:58:02;100007.72;;;18.92;84.07
20755;BME280;26385;48.470;7.938;2022-09-01T03:00:28;100013.94;;;18.88;83.88
20755;BME280;26385;48.470;7.938;2022-09-01T03:02:59;100012.19;;;18.88;84.03
20755;BME280;26385;48.470;7.938;2022-09-01T03:05:27;100009.66;;;18.83;83.55
20755;BME280;26385;48.470;7.938;2022-09-01T03:07:56;100013.16;;;18.81;83.42
20755;BME280;26385;48.470;7.938;2022-09-01T03:10:24;100010.63;;;18.75;83.76
20755;BME280;26385;48.470;7.938;2022-09-01T03:12:56;100012.47;;;18.70;83.83
20755;BME280;26385;48.470;7.938;2022-09-01T03:15:22;100015.13;;;18.68;83.25
20755;BME280;26385;48.470;7.938;2022-09-01T03:17:47;100019.47;;;18.69;83.36
20755;BME280;26385;48.470;7.938;2022-09-01T03:20:14;100017.75;;;18.65;82.92
20755;BME280;26385;48.470;7.938;2022-09-01T03:22:40;100013.38;;;18.67;82.97
20755;BME280;26385;48.470;7.938;2022-09-01T03:25:05;100006.44;;;18.62;82.72
20755;BME280;26385;48.470;7.938;2022-09-01T03:27:31;100011.69;;;18.60;83.01
20755;BME280;26385;48.470;7.938;2022-09-01T03:29:57;100017.84;;;18.57;82.91
20755;BME280;26385;48.470;7.938;2022-09-01T03:32:22;100014.38;;;18.55;82.89
20755;BME280;26385;48.470;7.938;2022-09-01T03:34:48;100012.59;;;18.57;82.86
20755;BME280;26385;48.470;7.938;2022-09-01T03:37:15;100015.16;;;18.62;82.90
20755;BME280;26385;48.470;7.938;2022-09-01T03:39:41;100019.59;;;18.59;82.80
20755;BME280;26385;48.470;7.938;2022-09-01T03:42:07;100023.94;;;18.58;83.42
20755;BME280;26385;48.470;7.938;2022-09-01T03:44:36;100012.56;;;18.61;83.07
20755;BME280;26385;48.470;7.938;2022-09-01T03:47:04;100017.91;;;18.54;83.40
20755;BME280;26385;48.470;7.938;2022-09-01T03:49:34;100010.00;;;18.56;83.34
20755;BME280;26385;48.470;7.938;2022-09-01T03:52:00;100019.69;;;18.49;83.40
20755;BME280;26385;48.470;7.938;2022-09-01T03:54:25;100013.66;;;18.46;83.94
20755;BME280;26385;48.470;7.938;2022-09-01T03:56:54;100011.97;;;18.42;84.46
20755;BME280;26385;48.470;7.938;2022-09-01T03:59:19;100006.75;;;18.39;84.81
20755;BME280;26385;48.470;7.938;2022-09-01T04:01:47;99999.69;;;18.44;84.02
20755;BME280;26385;48.470;7.938;2022-09-01T04:04:13;100012.84;;;18.39;84.42
20755;BME280;26385;48.470;7.938;2022-09-01T04:06:40;100009.34;;;18.40;84.53
20755;BME280;26385;48.470;7.938;2022-09-01T04:09:06;100002.38;;;18.39;84.78
20755;BME280;26385;48.470;7.938;2022-09-01T04:11:31;100005.03;;;18.36;84.07
20755;BME280;26385;48.470;7.938;2022-09-01T04:13:57;99999.81;;;18.35;84.42
20755;BME280;26385;48.470;7.938;2022-09-01T04:16:28;100009.50;;;18.29;84.42
20755;BME280;26385;48.470;7.938;2022-09-01T04:19:17;100002.53;;;18.28;84.42
20755;BME280;26385;48.470;7.938;2022-09-01T04:21:55;100008.59;;;18.34;84.55
20755;BME280;26385;48.470;7.938;2022-09-01T04:24:22;100001.59;;;18.31;84.26
20755;BME280;26385;48.470;7.938;2022-09-01T04:26:49;99992.66;;;18.46;91.28
20755;BME280;26385;48.470;7.938;2022-09-01T04:29:19;99998.41;;;18.72;90.39
20755;BME280;26385;48.470;7.938;2022-09-01T04:31:58;100001.38;;;19.06;88.87
20755;BME280;26385;48.470;7.938;2022-09-01T04:34:29;100005.63;;;19.15;83.84
20755;BME280;26385;48.470;7.938;2022-09-01T04:37:01;100008.19;;;19.18;83.54
20755;BME280;26385;48.470;7.938;2022-09-01T04:39:27;100009.91;;;19.21;83.87
20755;BME280;26385;48.470;7.938;2022-09-01T04:41:53;100003.50;;;19.37;83.65
20755;BME280;26385;48.470;7.938;2022-09-01T04:44:19;100014.53;;;19.56;82.05
20755;BME280;26385;48.470;7.938;2022-09-01T04:46:46;100007.34;;;19.68;81.25
20755;BME280;26385;48.470;7.938;2022-09-01T04:49:13;100008.81;;;19.82;79.84
20755;BME280;26385;48.470;7.938;2022-09-01T04:51:46;100007.22;;;19.73;78.11
20755;BME280;26385;48.470;7.938;2022-09-01T04:54:12;100010.13;;;19.58;78.43
20755;BME280;26385;48.470;7.938;2022-09-01T04:56:40;100011.47;;;19.31;79.16
20755;BME280;26385;48.470;7.938;2022-09-01T04:59:07;100010.16;;;19.05;80.47
20755;BME280;26385;48.470;7.938;2022-09-01T05:01:35;100009.75;;;18.76;81.34
20755;BME280;26385;48.470;7.938;2022-09-01T05:04:17;100015.06;;;18.71;82.39
20755;BME280;26385;48.470;7.938;2022-09-01T05:06:45;100013.44;;;18.61;83.06
20755;BME280;26385;48.470;7.938;2022-09-01T05:09:11;100014.38;;;18.55;83.58
20755;BME280;26385;48.470;7.938;2022-09-01T05:11:38;100014.44;;;18.52;83.48
20755;BME280;26385;48.470;7.938;2022-09-01T05:14:05;100014.66;;;18.36;84.76
20755;BME280;26385;48.470;7.938;2022-09-01T05:16:32;100018.97;;;18.40;84.85
20755;BME280;26385;48.470;7.938;2022-09-01T05:18:58;100011.19;;;18.35;85.16
20755;BME280;26385;48.470;7.938;2022-09-01T05:21:25;100013.03;;;18.27;85.50
20755;BME280;26385;48.470;7.938;2022-09-01T05:23:55;100017.31;;;18.33;85.48
20755;BME280;26385;48.470;7.938;2022-09-01T05:26:24;100018.19;;;18.35;84.92
20755;BME280;26385;48.470;7.938;2022-09-01T05:28:53;100013.84;;;18.31;85.09
20755;BME280;26385;48.470;7.938;2022-09-01T05:31:23;100014.75;;;18.28;85.67
20755;BME280;26385;48.470;7.938;2022-09-01T05:33:49;100013.81;;;18.34;85.25
20755;BME280;26385;48.470;7.938;2022-09-01T05:36:19;100022.53;;;18.36;84.95
20755;BME280;26385;48.470;7.938;2022-09-01T05:38:45;100018.16;;;18.36;84.95
20755;BME280;26385;48.470;7.938;2022-09-01T05:41:12;100015.50;;;18.38;84.11
20755;BME280;26385;48.470;7.938;2022-09-01T05:43:43;100017.31;;;18.33;84.28
20755;BME280;26385;48.470;7.938;2022-09-01T05:46:14;100025.16;;;18.36;84.67
20755;BME280;26385;48.470;7.938;2022-09-01T05:48:41;100017.31;;;18.34;84.55
20755;BME280;26385;48.470;7.938;2022-09-01T05:51:08;100026.84;;;18.38;84.07
20755;BME280;26385;48.470;7.938;2022-09-01T05:53:34;100022.31;;;18.52;83.40
20755;BME280;26385;48.470;7.938;2022-09-01T05:56:00;100023.94;;;18.58;83.27
20755;BME280;26385;48.470;7.938;2022-09-01T05:58:31;100023.75;;;18.75;82.98
20755;BME280;26385;48.470;7.938;2022-09-01T06:00:57;100022.63;;;18.91;82.48
20755;BME280;26385;48.470;7.938;2022-09-01T06:03:23;100027.63;;;19.06;81.23
20755;BME280;26385;48.470;7.938;2022-09-01T06:05:49;100024.81;;;19.19;80.61
20755;BME280;26385;48.470;7.938;2022-09-01T06:08:23;100028.09;;;19.31;80.14
20755;BME280;26385;48.470;7.938;2022-09-01T06:10:50;100033.91;;;19.49;79.17
20755;BME280;26385;48.470;7.938;2022-09-01T06:13:17;100024.00;;;19.66;78.51
20755;BME280;26385;48.470;7.938;2022-09-01T06:15:46;100029.81;;;19.85;77.41
20755;BME280;26385;48.470;7.938;2022-09-01T06:18:12;100029.41;;;20.05;77.02
20755;BME280;26385;48.470;7.938;2022-09-01T06:20:41;100028.06;;;20.27;76.58
20755;BME280;26385;48.470;7.938;2022-09-01T06:23:08;100040.81;;;20.47;75.60
20755;BME280;26385;48.470;7.938;2022-09-01T06:25:37;100044.84;;;20.63;74.59
20755;BME280;26385;48.470;7.938;2022-09-01T06:28:03;100048.03;;;20.76;73.45
20755;BME280;26385;48.470;7.938;2022-09-01T06:30:29;100044.25;;;20.89;73.52
20755;BME280;26385;48.470;7.938;2022-09-01T06:32:54;100048.34;;;21.02;71.79
20755;BME280;26385;48.470;7.938;2022-09-01T06:35:22;100048.03;;;21.15;71.42
20755;BME280;26385;48.470;7.938;2022-09-01T06:37:53;100048.53;;;21.30;71.39
20755;BME280;26385;48.470;7.938;2022-09-01T06:40:20;100043.72;;;21.48;70.46
20755;BME280;26385;48.470;7.938;2022-09-01T06:42:47;100042.50;;;21.59;69.57
20755;BME280;26385;48.470;7.938;2022-09-01T06:45:14;100052.81;;;21.69;68.65
20755;BME280;26385;48.470;7.938;2022-09-01T06:47:41;100041.28;;;21.73;68.50
20755;BME280;26385;48.470;7.938;2022-09-01T06:50:08;100040.03;;;21.86;68.06
20755;BME280;26385;48.470;7.938;2022-09-01T06:52:35;100040.69;;;21.94;67.56
20755;BME280;26385;48.470;7.938;2022-09-01T06:55:00;100042.94;;;22.09;66.98
20755;BME280;26385;48.470;7.938;2022-09-01T06:57:25;100034.69;;;22.22;66.73
20755;BME280;26385;48.470;7.938;2022-09-01T06:59:51;100047.72;;;22.26;66.24
20755;BME280;26385;48.470;7.938;2022-09-01T07:02:18;100045.09;;;22.26;66.12
20755;BME280;26385;48.470;7.938;2022-09-01T07:04:44;100047.78;;;22.25;65.90
20755;BME280;26385;48.470;7.938;2022-09-01T07:07:10;100047.13;;;22.16;65.89
20755;BME280;26385;48.470;7.938;2022-09-01T07:09:37;100038.56;;;22.08;66.57
20755;BME280;26385;48.470;7.938;2022-09-01T07:12:03;100050.53;;;21.89;67.16
20755;BME280;26385;48.470;7.938;2022-09-01T07:14:29;100057.16;;;21.71;67.27
20755;BME280;26385;48.470;7.938;2022-09-01T07:16:55;100054.88;;;21.57;68.04
20755;BME280;26385;48.470;7.938;2022-09-01T07:19:22;100054.97;;;21.54;68.82
20755;BME280;26385;48.470;7.938;2022-09-01T07:21:48;100058.75;;;21.43;69.55
20755;BME280;26385;48.470;7.938;2022-09-01T07:24:13;100054.34;;;21.43;69.45
20755;BME280;26385;48.470;7.938;2022-09-01T07:26:42;100057.16;;;21.37;69.26
20755;BME280;26385;48.470;7.938;2022-09-01T07:29:08;100056.31;;;21.37;69.92
20755;BME280;26385;48.470;7.938;2022-09-01T07:31:36;100062.44;;;21.37;70.12
20755;BME280;26385;48.470;7.938;2022-09-01T07:34:04;100059.81;;;21.35;69.67
20755;BME280;26385;48.470;7.938;2022-09-01T07:36:31;100067.00;;;21.30;70.02
20755;BME280;26385;48.470;7.938;2022-09-01T07:38:57;100066.19;;;21.27;70.01
20755;BME280;26385;48.470;7.938;2022-09-01T07:41:24;100071.34;;;21.31;70.17
20755;BME280;26385;48.470;7.938;2022-09-01T07:43:51;100063.34;;;21.34;70.38
20755;BME280;26385;48.470;7.938;2022-09-01T07:46:19;100065.06;;;21.37;70.03
20755;BME280;26385;48.470;7.938;2022-09-01T07:48:44;100065.06;;;21.37;69.93
20755;BME280;26385;48.470;7.938;2022-09-01T07:51:13;100065.81;;;21.42;70.21
20755;BME280;26385;48.470;7.938;2022-09-01T07:53:43;100062.13;;;21.49;70.05
20755;BME280;26385;48.470;7.938;2022-09-01T07:56:10;100069.06;;;21.53;69.59
20755;BME280;26385;48.470;7.938;2022-09-01T07:58:37;100061.06;;;21.56;69.38
20755;BME280;26385;48.470;7.938;2022-09-01T08:01:24;100063.69;;;21.56;68.70
20755;BME280;26385;48.470;7.938;2022-09-01T08:03:56;100069.63;;;21.64;69.16
20755;BME280;26385;48.470;7.938;2022-09-01T08:06:23;100061.56;;;21.71;69.11
20755;BME280;26385;48.470;7.938;2022-09-01T08:08:51;100061.47;;;21.74;68.60
20755;BME280;26385;48.470;7.938;2022-09-01T08:11:22;100065.94;;;21.72;68.09
20755;BME280;26385;48.470;7.938;2022-09-01T08:13:49;100069.28;;;21.77;68.05
20755;BME280;26385;48.470;7.938;2022-09-01T08:16:15;100067.41;;;21.82;67.93
20755;BME280;26385;48.470;7.938;2022-09-01T08:18:42;100059.41;;;21.85;68.25
20755;BME280;26385;48.470;7.938;2022-09-01T08:21:08;100064.81;;;21.80;68.53
20755;BME280;26385;48.470;7.938;2022-09-01T08:23:34;100060.25;;;21.87;68.10
20755;BME280;26385;48.470;7.938;2022-09-01T08:26:06;100067.97;;;21.93;67.60
20755;BME280;26385;48.470;7.938;2022-09-01T08:28:31;100064.28;;;22.00;66.64
20755;BME280;26385;48.470;7.938;2022-09-01T08:30:57;100070.34;;;22.04;67.95
20755;BME280;26385;48.470;7.938;2022-09-01T08:33:25;100062.31;;;22.08;67.37
20755;BME280;26385;48.470;7.938;2022-09-01T08:35:50;100065.88;;;22.06;66.72
20755;BME280;26385;48.470;7.938;2022-09-01T08:38:16;100064.88;;;22.11;66.50
20755;BME280;26385;48.470;7.938;2022-09-01T08:40:48;100067.44;;;22.14;66.16
20755;BME280;26385;48.470;7.938;2022-09-01T08:45:57;100067.88;;;22.30;65.18
20755;BME280;26385;48.470;7.938;2022-09-01T08:48:37;100064.25;;;22.33;64.51
20755;BME280;26385;48.470;7.938;2022-09-01T08:51:17;100069.22;;;22.43;64.76
20755;BME280;26385;48.470;7.938;2022-09-01T08:54:20;100060.25;;;22.49;64.49
20755;BME280;26385;48.470;7.938;2022-09-01T08:56:52;100068.00;;;22.55;64.12
20755;BME280;26385;48.470;7.938;2022-09-01T08:59:19;100060.09;;;22.55;64.01
20755;BME280;26385;48.470;7.938;2022-09-01T09:07:31;100058.38;;;22.82;63.45
20755;BME280;26385;48.470;7.938;2022-09-01T09:10:18;100052.78;;;22.93;63.34
20755;BME280;26385;48.470;7.938;2022-09-01T09:15:42;100062.06;;;23.06;62.85
20755;BME280;26385;48.470;7.938;2022-09-01T09:18:22;100055.06;;;23.31;60.98
20755;BME280;26385;48.470;7.938;2022-09-01T09:20:51;100053.22;;;23.60;59.70
20755;BME280;26385;48.470;7.938;2022-09-01T09:23:26;100052.09;;;23.67;59.31
20755;BME280;26385;48.470;7.938;2022-09-01T09:25:52;100052.91;;;23.94;58.69
20755;BME280;26385;48.470;7.938;2022-09-01T09:28:18;100052.78;;;24.22;58.24
20755;BME280;26385;48.470;7.938;2022-09-01T09:30:43;100043.69;;;24.53;57.17
20755;BME280;26385;48.470;7.938;2022-09-01T09:33:08;100040.16;;;24.76;56.13
20755;BME280;26385;48.470;7.938;2022-09-01T09:35:45;100041.66;;;25.05;54.54
20755;BME280;26385;48.470;7.938;2022-09-01T09:41:05;100017.53;;;25.53;53.87
20755;BME280;26385;48.470;7.938;2022-09-01T09:43:34;100027.66;;;25.64;51.93
20755;BME280;26385;48.470;7.938;2022-09-01T09:46:32;100017.19;;;26.01;50.94
20755;BME280;26385;48.470;7.938;2022-09-01T09:51:35;100019.75;;;26.61;50.57
20755;BME280;26385;48.470;7.938;2022-09-01T09:54:19;100014.13;;;26.86;47.45
20755;BME280;26385;48.470;7.938;2022-09-01T09:56:45;100007.78;;;27.07;46.07
20755;BME280;26385;48.470;7.938;2022-09-01T09:59:21;100014.94;;;27.41;45.04
20755;BME280;26385;48.470;7.938;2022-09-01T10:01:47;100006.59;;;27.65;44.29
20755;BME280;26385;48.470;7.938;2022-09-01T10:04:31;100010.63;;;27.73;43.79
20755;BME280;26385;48.470;7.938;2022-09-01T10:06:57;100009.75;;;27.56;43.51
20755;BME280;26385;48.470;7.938;2022-09-01T10:11:51;99996.44;;;27.04;44.69
20755;BME280;26385;48.470;7.938;2022-09-01T10:14:21;100003.09;;;27.30;43.90
20755;BME280;26385;48.470;7.938;2022-09-01T10:17:08;99988.47;;;27.56;43.96
20755;BME280;26385;48.470;7.938;2022-09-01T10:19:36;99996.66;;;27.86;44.75
20755;BME280;26385;48.470;7.938;2022-09-01T10:22:07;99993.59;;;27.93;43.16
20755;BME280;26385;48.470;7.938;2022-09-01T10:24:35;99991.06;;;28.23;42.71
20755;BME280;26385;48.470;7.938;2022-09-01T10:27:18;99986.91;;;28.51;42.47
20755;BME280;26385;48.470;7.938;2022-09-01T10:29:50;99995.56;;;28.86;41.99
20755;BME280;26385;48.470;7.938;2022-09-01T10:32:19;99982.13;;;29.19;42.08
20755;BME280;26385;48.470;7.938;2022-09-01T10:34:45;99996.00;;;29.24;41.75
20755;BME280;26385;48.470;7.938;2022-09-01T10:37:11;99982.53;;;29.41;40.80
20755;BME280;26385;48.470;7.938;2022-09-01T10:40:17;99981.94;;;29.66;39.68
20755;BME280;26385;48.470;7.938;2022-09-01T10:42:48;99983.38;;;29.72;39.08
20755;BME280;26385;48.470;7.938;2022-09-01T10:45:29;99973.31;;;29.47;39.99
20755;BME280;26385;48.470;7.938;2022-09-01T10:47:55;99970.41;;;29.52;39.88
20755;BME280;26385;48.470;7.938;2022-09-01T10:50:28;99964.97;;;29.82;40.21
20755;BME280;26385;48.470;7.938;2022-09-01T10:52:59;99967.75;;;30.09;39.57
20755;BME280;26385;48.470;7.938;2022-09-01T10:55:46;99970.34;;;30.10;38.76
20755;BME280;26385;48.470;7.938;2022-09-01T10:58:32;99972.13;;;30.24;39.30
20755;BME280;26385;48.470;7.938;2022-09-01T11:01:01;99967.06;;;30.05;38.88
20755;BME280;26385;48.470;7.938;2022-09-01T11:09:38;99967.38;;;28.66;41.08
20755;BME280;26385;48.470;7.938;2022-09-01T11:12:23;99965.69;;;28.34;41.06
20755;BME280;26385;48.470;7.938;2022-09-01T11:17:24;99964.84;;;28.16;41.79
20755;BME280;26385;48.470;7.938;2022-09-01T11:22:40;99965.50;;;28.68;41.84
20755;BME280;26385;48.470;7.938;2022-09-01T11:30:59;99957.75;;;28.95;39.88
20755;BME280;26385;48.470;7.938;2022-09-01T11:36:21;99943.34;;;29.86;39.09
20755;BME280;26385;48.470;7.938;2022-09-01T11:41:30;99944.56;;;29.52;38.27
20755;BME280;26385;48.470;7.938;2022-09-01T11:43:59;99942.06;;;29.49;38.88
20755;BME280;26385;48.470;7.938;2022-09-01T11:46:27;99939.13;;;29.68;39.04
20755;BME280;26385;48.470;7.938;2022-09-01T11:48:55;99933.53;;;29.42;38.85
20755;BME280;26385;48.470;7.938;2022-09-01T11:51:21;99936.00;;;29.31;39.57
20755;BME280;26385;48.470;7.938;2022-09-01T11:53:48;99935.09;;;29.47;39.08
20755;BME280;26385;48.470;7.938;2022-09-01T11:56:23;99930.94;;;29.85;38.94
20755;BME280;26385;48.470;7.938;2022-09-01T11:58:49;99934.66;;;30.11;37.42
20755;BME280;26385;48.470;7.938;2022-09-01T12:01:38;99930.22;;;30.24;36.94
20755;BME280;26385;48.470;7.938;2022-09-01T12:04:22;99937.72;;;30.46;37.61
20755;BME280;26385;48.470;7.938;2022-09-01T12:07:09;99929.56;;;30.62;36.98
20755;BME280;26385;48.470;7.938;2022-09-01T12:09:44;99921.72;;;30.59;36.61
20755;BME280;26385;48.470;7.938;2022-09-01T12:12:27;99921.44;;;30.37;36.58
20755;BME280;26385;48.470;7.938;2022-09-01T12:15:13;99916.06;;;29.81;36.90
20755;BME280;26385;48.470;7.938;2022-09-01T12:17:41;99920.59;;;29.36;37.70
20755;BME280;26385;48.470;7.938;2022-09-01T12:22:47;99924.13;;;28.77;38.67
20755;BME280;26385;48.470;7.938;2022-09-01T12:25:22;99916.47;;;28.71;39.41
20755;BME280;26385;48.470;7.938;2022-09-01T12:27:49;99917.28;;;28.87;39.02
20755;BME280;26385;48.470;7.938;2022-09-01T12:30:14;99921.22;;;29.11;38.84
20755;BME280;26385;48.470;7.938;2022-09-01T12:32:40;99913.53;;;29.35;38.65
20755;BME280;26385;48.470;7.938;2022-09-01T12:35:20;99912.97;;;29.44;37.92
20755;BME280;26385;48.470;7.938;2022-09-01T12:37:46;99915.25;;;29.36;37.62
20755;BME280;26385;48.470;7.938;2022-09-01T12:40:22;99919.09;;;29.02;36.92
20755;BME280;26385;48.470;7.938;2022-09-01T12:42:50;99917.84;;;28.78;38.09
20755;BME280;26385;48.470;7.938;2022-09-01T12:45:35;99924.34;;;28.42;37.89
20755;BME280;26385;48.470;7.938;2022-09-01T12:48:01;99924.78;;;28.35;38.04
20755;BME280;26385;48.470;7.938;2022-09-01T12:52:56;99914.41;;;28.76;38.14
20755;BME280;26385;48.470;7.938;2022-09-01T12:55:24;99912.50;;;28.78;37.71
20755;BME280;26385;48.470;7.938;2022-09-01T12:57:55;99912.25;;;28.67;38.31
20755;BME280;26385;48.470;7.938;2022-09-01T13:00:25;99907.41;;;28.43;38.07
20755;BME280;26385;48.470;7.938;2022-09-01T13:03:04;99909.09;;;28.13;38.42
20755;BME280;26385;48.470;7.938;2022-09-01T13:05:34;99904.00;;;28.08;40.09
20755;BME280;26385;48.470;7.938;2022-09-01T13:08:03;99903.44;;;28.50;40.03
20755;BME280;26385;48.470;7.938;2022-09-01T13:10:32;99898.00;;;28.98;39.45
20755;BME280;26385;48.470;7.938;2022-09-01T13:12:58;99900.47;;;29.31;38.21
20755;BME280;26385;48.470;7.938;2022-09-01T13:15:26;99891.25;;;29.51;34.95
20755;BME280;26385;48.470;7.938;2022-09-01T13:17:52;99891.47;;;29.62;35.23
20755;BME280;26385;48.470;7.938;2022-09-01T13:20:18;99886.13;;;29.62;37.87
20755;BME280;26385;48.470;7.938;2022-09-01T13:22:43;99884.59;;;29.72;37.33
20755;BME280;26385;48.470;7.938;2022-09-01T13:25:16;99884.47;;;29.88;36.89
20755;BME280;26385;48.470;7.938;2022-09-01T13:27:43;99886.06;;;30.05;36.37
20755;BME280;26385;48.470;7.938;2022-09-01T13:30:20;99885.34;;;29.88;36.72
20755;BME280;26385;48.470;7.938;2022-09-01T13:32:46;99877.34;;;29.74;36.26
20755;BME280;26385;48.470;7.938;2022-09-01T13:35:18;99875.94;;;29.68;36.79
20755;BME280;26385;48.470;7.938;2022-09-01T13:37:44;99872.94;;;29.59;37.16
20755;BME280;26385;48.470;7.938;2022-09-01T13:40:10;99874.88;;;29.57;37.06
20755;BME280;26385;48.470;7.938;2022-09-01T13:42:40;99866.38;;;29.64;37.76
20755;BME280;26385;48.470;7.938;2022-09-01T13:45:06;99866.75;;;29.58;36.78
20755;BME280;26385;48.470;7.938;2022-09-01T13:47:31;99865.41;;;29.51;36.66
20755;BME280;26385;48.470;7.938;2022-09-01T13:49:58;99867.13;;;29.66;36.88